createdAt,value
2023-02-25T00:00:26.893Z,10.16
2023-02-25T00:01:26.798Z,10.16
2023-02-25T00:02:26.888Z,10.23
2023-02-25T00:03:26.827Z,10.09
2023-02-25T00:04:26.751Z,10.25
2023-02-25T00:05:26.775Z,10.22
2023-02-25T00:06:26.860Z,10.16
2023-02-25T00:07:26.731Z,10.22
2023-02-25T00:08:26.739Z,10.22
2023-02-25T00:09:26.700Z,10.17
2023-02-25T00:10:26.716Z,10.23
2023-02-25T00:11:26.703Z,10.17
2023-02-25T00:12:26.695Z,10.20
2023-02-25T00:13:26.684Z,10.23
2023-02-25T00:14:26.650Z,10.17
2023-02-25T00:15:26.768Z,10.17
2023-02-25T00:16:26.819Z,10.25
2023-02-25T00:17:26.608Z,10.22
2023-02-25T00:18:26.656Z,10.19
2023-02-25T00:19:26.587Z,10.16
2023-02-25T00:20:26.586Z,10.23
2023-02-25T00:21:26.561Z,10.19
2023-02-25T00:22:26.550Z,10.22
2023-02-25T00:23:26.553Z,10.19
2023-02-25T00:24:26.596Z,10.22
2023-02-25T00:25:26.519Z,10.16
2023-02-25T00:26:26.500Z,10.16
2023-02-25T00:27:26.523Z,10.12
2023-02-25T00:28:26.499Z,10.17
2023-02-25T00:29:26.500Z,10.16
2023-02-25T00:30:26.598Z,10.16
2023-02-25T00:31:26.606Z,10.13
2023-02-25T00:32:26.686Z,10.25
2023-02-25T00:33:26.454Z,10.12
2023-02-25T00:34:26.423Z,10.19
2023-02-25T00:35:26.406Z,10.25
2023-02-25T00:36:26.454Z,10.16
2023-02-25T00:37:26.404Z,10.25
2023-02-25T00:38:26.371Z,10.23
2023-02-25T00:39:26.461Z,10.13
2023-02-25T00:40:26.346Z,10.19
2023-02-25T00:41:26.359Z,10.17
2023-02-25T00:42:26.421Z,10.16
2023-02-25T00:43:26.340Z,10.22
2023-02-25T00:44:26.396Z,10.23
2023-02-25T00:45:26.286Z,10.13
2023-02-25T00:46:26.650Z,10.19
2023-02-25T00:47:26.270Z,10.20
2023-02-25T00:48:26.333Z,10.22
2023-02-25T00:49:32.059Z,10.20
2023-02-25T00:50:27.253Z,10.28
2023-02-25T00:51:26.223Z,10.20
2023-02-25T00:52:26.210Z,10.19
2023-02-25T00:53:26.197Z,10.25
2023-02-25T00:54:26.220Z,10.19
2023-02-25T00:55:26.183Z,10.19
2023-02-25T00:56:26.208Z,10.22
2023-02-25T00:57:26.171Z,10.19
2023-02-25T00:58:26.162Z,10.20
2023-02-25T00:59:26.175Z,10.26
2023-02-25T01:00:26.137Z,10.22
2023-02-25T01:01:26.208Z,10.22
2023-02-25T01:02:26.127Z,10.20
2023-02-25T01:03:26.098Z,10.23
2023-02-25T01:04:26.076Z,10.23
2023-02-25T01:05:26.065Z,10.23
2023-02-25T01:06:26.102Z,10.15
2023-02-25T01:07:26.101Z,10.17
2023-02-25T01:08:26.026Z,10.22
2023-02-25T01:09:26.129Z,10.26
2023-02-25T01:10:26.004Z,10.30
2023-02-25T01:11:26.044Z,10.16
2023-02-25T01:12:26.000Z,10.25
2023-02-25T01:13:25.968Z,10.22
2023-02-25T01:14:25.967Z,10.15
2023-02-25T01:15:25.977Z,10.13
2023-02-25T01:16:26.453Z,10.22
2023-02-25T01:17:25.932Z,10.23
2023-02-25T01:18:25.945Z,10.10
2023-02-25T01:19:25.899Z,10.16
2023-02-25T01:20:25.957Z,10.16
2023-02-25T01:21:25.922Z,10.15
2023-02-25T01:22:25.868Z,10.22
2023-02-25T01:23:25.847Z,10.15
2023-02-25T01:24:25.885Z,10.20
2023-02-25T01:25:25.835Z,10.05
2023-02-25T01:26:25.841Z,10.17
2023-02-25T01:27:25.810Z,10.17
2023-02-25T01:28:25.817Z,10.15
2023-02-25T01:29:25.786Z,10.22
2023-02-25T01:30:25.816Z,10.13
2023-02-25T01:31:25.958Z,10.17
2023-02-25T01:32:25.997Z,10.19
2023-02-25T01:33:25.865Z,10.26
2023-02-25T01:34:25.737Z,10.20
2023-02-25T01:35:25.715Z,10.22
2023-02-25T01:36:25.740Z,10.25
2023-02-25T01:37:25.713Z,10.09
2023-02-25T01:38:25.680Z,10.10
2023-02-25T01:39:26.497Z,10.10
2023-02-25T01:40:25.670Z,10.17
2023-02-25T01:41:25.756Z,10.15
2023-02-25T01:42:25.686Z,10.25
2023-02-25T01:43:25.626Z,10.12
2023-02-25T01:44:25.631Z,10.12
2023-02-25T01:45:25.597Z,10.16
2023-02-25T01:46:26.008Z,10.09
2023-02-25T01:47:25.616Z,10.16
2023-02-25T01:48:25.698Z,10.16
2023-02-25T01:49:25.558Z,10.16
2023-02-25T01:50:25.552Z,10.17
2023-02-25T01:51:25.561Z,10.13
2023-02-25T01:52:25.550Z,10.16
2023-02-25T01:53:25.516Z,10.19
2023-02-25T01:54:25.548Z,10.19
2023-02-25T01:55:25.491Z,10.19
2023-02-25T01:56:25.477Z,10.20
2023-02-25T01:57:25.466Z,10.16
2023-02-25T01:58:25.456Z,10.26
2023-02-25T01:59:25.458Z,10.19
2023-02-25T02:00:25.523Z,10.19
2023-02-25T02:01:25.425Z,10.20
2023-02-25T02:02:25.459Z,10.23
2023-02-25T02:03:25.429Z,10.23
2023-02-25T02:04:27.360Z,10.25
2023-02-25T02:05:25.522Z,10.20
2023-02-25T02:06:25.507Z,10.19
2023-02-25T02:07:25.359Z,10.25
2023-02-25T02:08:25.346Z,10.19
2023-02-25T02:09:25.357Z,10.28
2023-02-25T02:10:25.340Z,10.33
2023-02-25T02:11:25.306Z,10.25
2023-02-25T02:12:25.353Z,10.22
2023-02-25T02:13:25.288Z,10.25
2023-02-25T02:14:25.338Z,10.26
2023-02-25T02:15:25.260Z,10.33
2023-02-25T02:16:25.587Z,10.25
2023-02-25T02:17:25.244Z,10.28
2023-02-25T02:18:25.266Z,10.30
2023-02-25T02:19:25.264Z,10.22
2023-02-25T02:20:25.198Z,10.25
2023-02-25T02:21:25.196Z,10.22
2023-02-25T02:22:25.206Z,10.17
2023-02-25T02:23:25.201Z,10.22
2023-02-25T02:24:25.177Z,10.22
2023-02-25T02:25:25.145Z,10.22
2023-02-25T02:26:25.306Z,10.23
2023-02-25T02:27:25.155Z,10.23
2023-02-25T02:28:25.120Z,10.25
2023-02-25T02:29:25.110Z,10.19
2023-02-25T02:30:25.234Z,10.19
2023-02-25T02:31:25.167Z,10.20
2023-02-25T02:32:25.248Z,10.19
2023-02-25T02:33:25.062Z,10.20
2023-02-25T02:34:25.071Z,10.28
2023-02-25T02:35:25.062Z,10.23
2023-02-25T02:36:25.252Z,10.23
2023-02-25T02:37:25.042Z,10.26
2023-02-25T02:38:25.020Z,10.25
2023-02-25T02:39:25.003Z,10.22
2023-02-25T02:40:24.976Z,10.15
2023-02-25T02:41:24.974Z,10.22
2023-02-25T02:42:24.983Z,10.17
2023-02-25T02:43:24.965Z,10.04
2023-02-25T02:44:24.940Z,10.05
2023-02-25T02:45:24.972Z,10.07
2023-02-25T02:46:25.111Z,10.16
2023-02-25T02:47:24.894Z,10.22
2023-02-25T02:48:24.930Z,10.19
2023-02-25T02:49:24.899Z,10.13
2023-02-25T02:50:24.875Z,10.17
2023-02-25T02:51:24.875Z,10.20
2023-02-25T02:52:24.832Z,10.10
2023-02-25T02:53:24.836Z,10.07
2023-02-25T02:54:24.882Z,10.09
2023-02-25T02:55:24.817Z,10.05
2023-02-25T02:56:25.034Z,10.01
2023-02-25T02:57:24.778Z,10.05
2023-02-25T02:58:24.759Z,10.04
2023-02-25T02:59:24.853Z,10.10
2023-02-25T03:00:24.794Z,10.04
2023-02-25T03:01:24.777Z,10.04
2023-02-25T03:02:24.719Z,10.05
2023-02-25T03:03:24.701Z,10.07
2023-02-25T03:04:24.701Z,10.05
2023-02-25T03:05:24.808Z,10.07
2023-02-25T03:06:25.139Z,10.05
2023-02-25T03:07:24.682Z,10.05
2023-02-25T03:08:24.671Z,10.09
2023-02-25T03:09:24.652Z,10.05
2023-02-25T03:10:24.627Z,10.07
2023-02-25T03:11:24.617Z,10.04
2023-02-25T03:12:24.628Z,10.05
2023-02-25T03:13:24.798Z,10.05
2023-02-25T03:14:24.597Z,10.09
2023-02-25T03:15:24.576Z,10.10
2023-02-25T03:16:25.073Z,10.05
2023-02-25T03:17:24.543Z,10.09
2023-02-25T03:18:24.571Z,10.04
2023-02-25T03:19:24.544Z,10.12
2023-02-25T03:20:24.525Z,10.07
2023-02-25T03:21:24.562Z,10.07
2023-02-25T03:22:24.491Z,10.02
2023-02-25T03:23:24.523Z,10.05
2023-02-25T03:24:24.565Z,10.09
2023-02-25T03:25:24.533Z,10.05
2023-02-25T03:26:24.777Z,10.13
2023-02-25T03:27:24.496Z,10.12
2023-02-25T03:28:24.439Z,10.10
2023-02-25T03:29:24.411Z,10.12
2023-02-25T03:30:24.674Z,10.20
2023-02-25T03:31:24.453Z,10.09
2023-02-25T03:32:24.539Z,10.05
2023-02-25T03:33:24.431Z,10.23
2023-02-25T03:34:24.373Z,10.16
2023-02-25T03:35:24.340Z,10.16
2023-02-25T03:36:24.622Z,10.19
2023-02-25T03:37:24.331Z,10.26
2023-02-25T03:38:24.313Z,10.22
2023-02-25T03:39:24.333Z,10.26
2023-02-25T03:40:24.288Z,10.22
2023-02-25T03:41:24.284Z,10.22
2023-02-25T03:42:24.333Z,10.22
2023-02-25T03:43:24.251Z,10.20
2023-02-25T03:44:24.252Z,10.26
2023-02-25T03:45:24.244Z,10.17
2023-02-25T03:46:24.557Z,10.20
2023-02-25T03:47:24.213Z,10.20
2023-02-25T03:48:24.232Z,10.25
2023-02-25T03:49:24.264Z,10.23
2023-02-25T03:50:24.181Z,10.23
2023-02-25T03:51:24.174Z,10.17
2023-02-25T03:52:24.159Z,10.20
2023-02-25T03:53:24.140Z,10.25
2023-02-25T03:54:24.177Z,10.26
2023-02-25T03:55:24.136Z,10.26
2023-02-25T03:56:24.522Z,10.34
2023-02-25T03:57:24.096Z,10.22
2023-02-25T03:58:24.078Z,10.30
2023-02-25T03:59:24.090Z,10.17
2023-02-25T04:00:24.115Z,10.35
2023-02-25T04:01:24.050Z,10.34
2023-02-25T04:02:24.063Z,10.34
2023-02-25T04:03:24.021Z,10.33
2023-02-25T04:04:24.046Z,10.26
2023-02-25T04:05:24.596Z,10.33
2023-02-25T04:06:24.608Z,10.33
2023-02-25T04:07:23.978Z,10.30
2023-02-25T04:08:23.962Z,10.34
2023-02-25T04:09:23.950Z,10.28
2023-02-25T04:10:23.950Z,10.35
2023-02-25T04:11:23.996Z,10.34
2023-02-25T04:12:23.942Z,10.35
2023-02-25T04:13:23.967Z,10.37
2023-02-25T04:14:23.891Z,10.37
2023-02-25T04:15:24.084Z,10.33
2023-02-25T04:16:24.375Z,10.40
2023-02-25T04:17:23.859Z,10.41
2023-02-25T04:18:24.002Z,10.31
2023-02-25T04:19:23.856Z,10.31
2023-02-25T04:20:23.840Z,10.42
2023-02-25T04:21:23.829Z,10.35
2023-02-25T04:22:23.806Z,10.34
2023-02-25T04:23:23.789Z,10.35
2023-02-25T04:24:23.871Z,10.31
2023-02-25T04:25:23.769Z,10.38
2023-02-25T04:26:24.150Z,10.37
2023-02-25T04:27:23.771Z,10.37
2023-02-25T04:28:23.732Z,10.41
2023-02-25T04:29:23.726Z,10.33
2023-02-25T04:30:23.921Z,10.34
2023-02-25T04:31:23.880Z,10.37
2023-02-25T04:32:23.838Z,10.33
2023-02-25T04:33:23.687Z,10.33
2023-02-25T04:34:23.667Z,10.33
2023-02-25T04:35:23.653Z,10.37
2023-02-25T04:36:23.965Z,10.40
2023-02-25T04:37:23.637Z,10.34
2023-02-25T04:38:23.614Z,10.38
2023-02-25T04:39:23.619Z,10.40
2023-02-25T04:40:23.595Z,10.31
2023-02-25T04:41:23.593Z,10.35
2023-02-25T04:42:23.616Z,10.33
2023-02-25T04:43:23.610Z,10.33
2023-02-25T04:44:23.546Z,10.34
2023-02-25T04:45:25.714Z,10.30
2023-02-25T04:46:23.927Z,10.26
2023-02-25T04:47:23.529Z,10.35
2023-02-25T04:48:23.530Z,10.31
2023-02-25T04:49:23.507Z,10.30
2023-02-25T04:50:23.532Z,10.31
2023-02-25T04:51:23.492Z,10.28
2023-02-25T04:52:23.482Z,10.28
2023-02-25T04:53:23.553Z,10.31
2023-02-25T04:54:23.453Z,10.37
2023-02-25T04:55:23.446Z,10.30
2023-02-25T04:56:23.754Z,10.28
2023-02-25T04:57:23.432Z,10.33
2023-02-25T04:58:23.393Z,10.26
2023-02-25T04:59:23.409Z,10.33
2023-02-25T05:00:23.418Z,10.26
2023-02-25T05:01:23.481Z,10.25
2023-02-25T05:02:23.382Z,10.25
2023-02-25T05:03:23.332Z,10.23
2023-02-25T05:04:23.424Z,10.28
2023-02-25T05:05:23.338Z,10.25
2023-02-25T05:06:23.713Z,10.25
2023-02-25T05:07:23.289Z,10.28
2023-02-25T05:08:23.281Z,10.25
2023-02-25T05:09:23.269Z,10.25
2023-02-25T05:10:23.256Z,10.31
2023-02-25T05:11:23.247Z,10.26
2023-02-25T05:12:23.282Z,10.30
2023-02-25T05:13:23.226Z,10.26
2023-02-25T05:14:23.245Z,10.28
2023-02-25T05:15:23.225Z,10.31
2023-02-25T05:16:23.580Z,10.30
2023-02-25T05:17:23.180Z,10.31
2023-02-25T05:18:23.201Z,10.34
2023-02-25T05:19:23.213Z,10.30
2023-02-25T05:20:23.210Z,10.34
2023-02-25T05:21:23.178Z,10.33
2023-02-25T05:22:23.119Z,10.35
2023-02-25T05:23:23.112Z,10.30
2023-02-25T05:24:23.131Z,10.37
2023-02-25T05:25:23.107Z,10.30
2023-02-25T05:26:23.570Z,10.37
2023-02-25T05:27:23.063Z,10.35
2023-02-25T05:28:23.057Z,10.31
2023-02-25T05:29:23.104Z,10.26
2023-02-25T05:30:23.077Z,10.40
2023-02-25T05:31:23.217Z,10.30
2023-02-25T05:32:23.182Z,10.38
2023-02-25T05:33:23.008Z,10.40
2023-02-25T05:34:22.991Z,10.28
2023-02-25T05:35:22.991Z,10.37
2023-02-25T05:36:25.906Z,10.31
2023-02-25T05:37:22.951Z,10.37
2023-02-25T05:38:22.950Z,10.33
2023-02-25T05:39:22.933Z,10.34
2023-02-25T05:40:22.924Z,10.34
2023-02-25T05:41:22.905Z,10.31
2023-02-25T05:42:22.927Z,10.34
2023-02-25T05:43:22.885Z,10.28
2023-02-25T05:44:22.872Z,10.37
2023-02-25T05:45:22.875Z,10.40
2023-02-25T05:46:23.350Z,10.37
2023-02-25T05:47:22.861Z,10.28
2023-02-25T05:48:22.857Z,10.33
2023-02-25T05:49:22.823Z,10.33
2023-02-25T05:50:22.811Z,10.20
2023-02-25T05:51:22.807Z,10.17
2023-02-25T05:52:22.786Z,10.25
2023-02-25T05:53:22.795Z,10.09
2023-02-25T05:54:22.964Z,10.17
2023-02-25T05:55:22.744Z,10.10
2023-02-25T05:56:23.145Z,10.10
2023-02-25T05:57:22.730Z,10.02
2023-02-25T05:58:22.715Z,9.99
2023-02-25T05:59:22.711Z,10.01
2023-02-25T06:00:22.718Z,9.87
2023-02-25T06:01:22.706Z,9.95
2023-02-25T06:02:22.749Z,9.91
2023-02-25T06:03:22.831Z,9.83
2023-02-25T06:04:22.709Z,9.84
2023-02-25T06:05:22.649Z,9.89
2023-02-25T06:06:22.895Z,9.80
2023-02-25T06:07:22.617Z,9.84
2023-02-25T06:08:22.602Z,9.79
2023-02-25T06:09:22.593Z,9.77
2023-02-25T06:10:22.574Z,9.76
2023-02-25T06:11:22.571Z,9.84
2023-02-25T06:12:22.634Z,9.72
2023-02-25T06:13:22.543Z,9.76
2023-02-25T06:14:22.528Z,9.72
2023-02-25T06:15:22.538Z,9.74
2023-02-25T06:16:23.020Z,9.72
2023-02-25T06:17:22.500Z,9.72
2023-02-25T06:18:22.560Z,9.72
2023-02-25T06:19:22.503Z,9.69
2023-02-25T06:20:22.486Z,9.72
2023-02-25T06:21:22.462Z,9.76
2023-02-25T06:22:22.438Z,9.72
2023-02-25T06:23:22.443Z,9.72
2023-02-25T06:24:22.436Z,9.74
2023-02-25T06:25:22.486Z,9.73
2023-02-25T06:26:22.817Z,9.72
2023-02-25T06:27:22.414Z,9.66
2023-02-25T06:28:22.386Z,9.77
2023-02-25T06:29:22.370Z,9.76
2023-02-25T06:30:22.367Z,9.74
2023-02-25T06:31:22.509Z,9.69
2023-02-25T06:32:22.529Z,9.72
2023-02-25T06:33:22.317Z,9.69
2023-02-25T06:34:22.334Z,9.65
2023-02-25T06:35:22.325Z,9.74
2023-02-25T06:36:22.740Z,9.73
2023-02-25T06:37:22.274Z,9.72
2023-02-25T06:38:22.267Z,9.61
2023-02-25T06:39:22.318Z,9.65
2023-02-25T06:40:22.260Z,9.74
2023-02-25T06:41:22.363Z,9.74
2023-02-25T06:42:22.255Z,9.77
2023-02-25T06:43:22.262Z,9.69
2023-02-25T06:44:22.229Z,9.73
2023-02-25T06:45:22.202Z,9.73
2023-02-25T06:46:22.544Z,9.73
2023-02-25T06:47:22.157Z,9.69
2023-02-25T06:48:22.204Z,9.79
2023-02-25T06:49:22.135Z,9.76
2023-02-25T06:50:22.159Z,9.77
2023-02-25T06:51:22.141Z,9.79
2023-02-25T06:52:22.102Z,9.76
2023-02-25T06:53:22.092Z,9.83
2023-02-25T06:54:22.107Z,9.80
2023-02-25T06:55:22.077Z,9.83
2023-02-25T06:56:22.737Z,9.82
2023-02-25T06:57:22.044Z,9.83
2023-02-25T06:58:22.038Z,9.89
2023-02-25T06:59:22.042Z,9.84
2023-02-25T07:00:22.088Z,9.84
2023-02-25T07:01:22.078Z,9.83
2023-02-25T07:02:21.985Z,9.89
2023-02-25T07:03:21.987Z,9.83
2023-02-25T07:04:22.068Z,9.91
2023-02-25T07:05:21.958Z,9.91
2023-02-25T07:06:22.559Z,9.97
2023-02-25T07:07:22.032Z,9.98
2023-02-25T07:08:21.926Z,9.99
2023-02-25T07:09:21.915Z,10.04
2023-02-25T07:10:21.905Z,9.99
2023-02-25T07:11:21.902Z,10.02
2023-02-25T07:12:21.959Z,10.02
2023-02-25T07:13:21.869Z,10.12
2023-02-25T07:14:21.855Z,10.09
2023-02-25T07:15:21.864Z,10.05
2023-02-25T07:16:22.132Z,10.13
2023-02-25T07:17:21.851Z,10.12
2023-02-25T07:18:21.842Z,10.07
2023-02-25T07:19:21.796Z,9.99
2023-02-25T07:20:21.804Z,10.01
2023-02-25T07:21:21.774Z,9.97
2023-02-25T07:22:24.153Z,9.94
2023-02-25T07:23:21.773Z,9.98
2023-02-25T07:24:21.793Z,9.89
2023-02-25T07:25:21.813Z,9.94
2023-02-25T07:26:22.027Z,9.89
2023-02-25T07:27:21.750Z,9.94
2023-02-25T07:28:21.697Z,10.01
2023-02-25T07:29:21.747Z,9.95
2023-02-25T07:30:21.720Z,9.98
2023-02-25T07:31:22.036Z,10.01
2023-02-25T07:32:21.831Z,10.05
2023-02-25T07:33:21.633Z,10.05
2023-02-25T07:34:21.655Z,10.12
2023-02-25T07:35:21.618Z,10.10
2023-02-25T07:36:21.631Z,10.10
2023-02-25T07:37:21.602Z,10.20
2023-02-25T07:38:21.676Z,10.12
2023-02-25T07:39:21.591Z,10.05
2023-02-25T07:40:21.575Z,10.20
2023-02-25T07:41:21.848Z,10.19
2023-02-25T07:42:21.596Z,10.19
2023-02-25T07:43:21.561Z,10.23
2023-02-25T07:44:21.540Z,10.28
2023-02-25T07:45:21.519Z,10.23
2023-02-25T07:46:21.565Z,10.20
2023-02-25T07:47:21.483Z,10.26
2023-02-25T07:48:21.507Z,10.31
2023-02-25T07:49:21.455Z,10.40
2023-02-25T07:50:21.497Z,10.37
2023-02-25T07:51:21.726Z,10.33
2023-02-25T07:52:21.440Z,10.34
2023-02-25T07:53:21.420Z,10.42
2023-02-25T07:54:21.434Z,10.41
2023-02-25T07:55:21.419Z,10.49
2023-02-25T07:56:21.378Z,10.48
2023-02-25T07:57:21.371Z,10.41
2023-02-25T07:58:21.428Z,10.57
2023-02-25T07:59:21.342Z,10.42
2023-02-25T08:00:21.417Z,10.46
2023-02-25T08:01:21.816Z,10.53
2023-02-25T08:02:21.377Z,10.53
2023-02-25T08:03:21.302Z,10.49
2023-02-25T08:04:21.355Z,10.56
2023-02-25T08:05:21.276Z,10.56
2023-02-25T08:06:21.335Z,10.57
2023-02-25T08:07:21.263Z,10.51
2023-02-25T08:08:21.243Z,10.51
2023-02-25T08:09:21.236Z,10.57
2023-02-25T08:10:21.219Z,10.59
2023-02-25T08:11:21.553Z,10.48
2023-02-25T08:12:21.232Z,10.54
2023-02-25T08:13:21.203Z,10.53
2023-02-25T08:14:21.182Z,10.57
2023-02-25T08:15:21.160Z,10.67
2023-02-25T08:16:21.284Z,10.54
2023-02-25T08:17:21.144Z,10.64
2023-02-25T08:18:21.232Z,10.67
2023-02-25T08:19:21.140Z,10.69
2023-02-25T08:20:21.174Z,10.74
2023-02-25T08:21:21.477Z,10.72
2023-02-25T08:22:22.124Z,10.69
2023-02-25T08:23:21.092Z,10.63
2023-02-25T08:24:21.204Z,10.61
2023-02-25T08:25:21.046Z,10.51
2023-02-25T08:26:21.040Z,10.41
2023-02-25T08:27:21.051Z,10.40
2023-02-25T08:28:21.023Z,10.35
2023-02-25T08:29:21.003Z,10.25
2023-02-25T08:30:21.034Z,10.10
2023-02-25T08:31:21.158Z,9.84
2023-02-25T08:32:21.094Z,9.66
2023-02-25T08:33:20.998Z,9.39
2023-02-25T08:34:20.962Z,9.08
2023-02-25T08:35:20.940Z,8.81
2023-02-25T08:36:21.647Z,8.53
2023-02-25T08:37:20.923Z,8.36
2023-02-25T08:38:20.929Z,8.12
2023-02-25T08:39:20.894Z,7.88
2023-02-25T08:40:20.903Z,7.87
2023-02-25T08:41:21.243Z,7.79
2023-02-25T08:42:20.923Z,7.58
2023-02-25T08:43:20.904Z,7.56
2023-02-25T08:44:20.837Z,7.35
2023-02-25T08:45:20.825Z,7.28
2023-02-25T08:46:21.384Z,7.11
2023-02-25T08:47:20.809Z,7.10
2023-02-25T08:48:20.956Z,7.02
2023-02-25T08:49:20.782Z,6.99
2023-02-25T08:50:20.772Z,6.96
2023-02-25T08:51:20.995Z,6.99
2023-02-25T08:52:20.740Z,6.89
2023-02-25T08:53:20.733Z,6.93
2023-02-25T08:54:20.763Z,7.02
2023-02-25T08:55:20.705Z,7.02
2023-02-25T08:56:20.760Z,7.05
2023-02-25T08:57:20.685Z,7.07
2023-02-25T08:58:20.764Z,7.05
2023-02-25T08:59:20.685Z,6.99
2023-02-25T09:00:20.716Z,7.05
2023-02-25T09:01:20.801Z,7.10
2023-02-25T09:02:20.631Z,7.20
2023-02-25T09:03:20.613Z,7.25
2023-02-25T09:04:20.681Z,7.20
2023-02-25T09:05:20.881Z,7.32
2023-02-25T09:06:20.634Z,7.28
2023-02-25T09:07:20.631Z,7.28
2023-02-25T09:08:20.588Z,7.42
2023-02-25T09:09:20.574Z,7.51
2023-02-25T09:10:20.540Z,7.54
2023-02-25T09:11:20.884Z,7.57
2023-02-25T09:12:22.061Z,7.53
2023-02-25T09:13:20.493Z,7.61
2023-02-25T09:14:20.653Z,7.72
2023-02-25T09:15:20.500Z,7.83
2023-02-25T09:16:20.697Z,7.90
2023-02-25T09:17:20.457Z,7.87
2023-02-25T09:18:20.486Z,8.06
2023-02-25T09:19:20.434Z,8.13
2023-02-25T09:20:20.420Z,8.20
2023-02-25T09:21:20.416Z,8.26
2023-02-25T09:22:20.401Z,8.24
2023-02-25T09:23:20.391Z,8.33
2023-02-25T09:24:20.390Z,8.33
2023-02-25T09:25:20.418Z,8.36
2023-02-25T09:26:20.386Z,8.36
2023-02-25T09:27:20.353Z,8.34
2023-02-25T09:28:20.338Z,8.36
2023-02-25T09:29:20.333Z,8.42
2023-02-25T09:30:20.353Z,8.31
2023-02-25T09:31:20.579Z,8.44
2023-02-25T09:32:20.499Z,8.38
2023-02-25T09:33:20.289Z,8.26
2023-02-25T09:34:20.285Z,8.27
2023-02-25T09:35:20.257Z,8.16
2023-02-25T09:36:20.279Z,8.18
2023-02-25T09:37:20.223Z,8.00
2023-02-25T09:38:20.246Z,8.10
2023-02-25T09:39:20.202Z,7.97
2023-02-25T09:40:20.200Z,7.94
2023-02-25T09:41:20.325Z,7.95
2023-02-25T09:42:20.297Z,7.98
2023-02-25T09:43:20.171Z,7.90
2023-02-25T09:44:20.207Z,7.88
2023-02-25T09:45:20.171Z,7.85
2023-02-25T09:46:20.187Z,7.94
2023-02-25T09:47:20.255Z,7.95
2023-02-25T09:48:20.118Z,7.95
2023-02-25T09:49:20.179Z,7.98
2023-02-25T09:50:20.090Z,7.95
2023-02-25T09:51:20.262Z,7.94
2023-02-25T09:52:20.063Z,7.93
2023-02-25T09:53:20.043Z,7.94
2023-02-25T09:54:20.190Z,7.88
2023-02-25T09:55:20.029Z,7.98
2023-02-25T09:56:20.028Z,7.88
2023-02-25T09:57:20.026Z,7.91
2023-02-25T09:58:20.016Z,7.93
2023-02-25T09:59:20.004Z,7.93
2023-02-25T10:00:20.192Z,7.94
2023-02-25T10:01:19.962Z,7.93
2023-02-25T10:02:20.097Z,7.97
2023-02-25T10:03:20.114Z,7.90
2023-02-25T10:04:19.928Z,7.90
2023-02-25T10:05:19.953Z,7.87
2023-02-25T10:06:19.977Z,7.90
2023-02-25T10:07:19.896Z,7.94
2023-02-25T10:08:19.948Z,7.90
2023-02-25T10:09:19.873Z,7.95
2023-02-25T10:10:19.935Z,7.90
2023-02-25T10:11:19.858Z,7.88
2023-02-25T10:12:20.392Z,7.83
2023-02-25T10:13:19.854Z,7.93
2023-02-25T10:14:19.824Z,7.95
2023-02-25T10:15:19.821Z,7.88
2023-02-25T10:16:19.888Z,7.97
2023-02-25T10:17:19.881Z,7.90
2023-02-25T10:18:19.813Z,8.03
2023-02-25T10:19:19.846Z,7.94
2023-02-25T10:20:19.862Z,7.93
2023-02-25T10:21:19.776Z,7.98
2023-02-25T10:22:19.730Z,8.00
2023-02-25T10:23:19.738Z,8.10
2023-02-25T10:24:19.890Z,8.10
2023-02-25T10:25:19.696Z,8.19
2023-02-25T10:26:19.702Z,8.19
2023-02-25T10:27:19.697Z,8.28
2023-02-25T10:28:19.668Z,8.27
2023-02-25T10:29:19.653Z,8.33
2023-02-25T10:30:19.677Z,8.31
2023-02-25T10:31:19.741Z,8.34
2023-02-25T10:32:19.894Z,8.36
2023-02-25T10:33:19.600Z,8.33
2023-02-25T10:34:19.594Z,8.52
2023-02-25T10:35:19.608Z,8.48
2023-02-25T10:36:19.646Z,8.49
2023-02-25T10:37:19.566Z,8.51
2023-02-25T10:38:19.582Z,8.56
2023-02-25T10:39:19.592Z,8.55
2023-02-25T10:40:19.527Z,8.56
2023-02-25T10:41:19.510Z,8.58
2023-02-25T10:42:19.521Z,8.56
2023-02-25T10:43:19.486Z,8.63
2023-02-25T10:44:19.525Z,8.67
2023-02-25T10:45:19.470Z,8.78
2023-02-25T10:46:19.504Z,8.74
2023-02-25T10:47:19.452Z,8.73
2023-02-25T10:48:19.524Z,8.79
2023-02-25T10:49:19.418Z,8.89
2023-02-25T10:50:19.467Z,8.88
2023-02-25T10:51:19.453Z,8.92
2023-02-25T10:52:19.384Z,9.00
2023-02-25T10:53:19.381Z,9.03
2023-02-25T10:54:19.478Z,9.02
2023-02-25T10:55:19.349Z,9.04
2023-02-25T10:56:19.349Z,9.10
2023-02-25T10:57:19.331Z,9.08
2023-02-25T10:58:19.349Z,9.11
2023-02-25T10:59:19.304Z,9.18
2023-02-25T11:00:19.340Z,9.16
2023-02-25T11:01:19.408Z,9.22
2023-02-25T11:02:19.356Z,9.22
2023-02-25T11:03:19.290Z,9.18
2023-02-25T11:04:19.248Z,9.19
2023-02-25T11:05:19.239Z,9.29
2023-02-25T11:06:21.126Z,9.36
2023-02-25T11:07:19.243Z,9.41
2023-02-25T11:08:19.198Z,9.36
2023-02-25T11:09:19.245Z,9.44
2023-02-25T11:10:19.186Z,9.43
2023-02-25T11:11:19.175Z,9.59
2023-02-25T11:12:19.252Z,9.54
2023-02-25T11:13:19.147Z,9.64
2023-02-25T11:14:19.144Z,9.62
2023-02-25T11:15:19.120Z,9.61
2023-02-25T11:16:19.164Z,9.73
2023-02-25T11:17:19.111Z,9.68
2023-02-25T11:18:19.152Z,9.68
2023-02-25T11:19:19.085Z,9.83
2023-02-25T11:20:19.102Z,9.76
2023-02-25T11:21:19.058Z,9.82
2023-02-25T11:22:19.070Z,9.76
2023-02-25T11:23:19.056Z,9.92
2023-02-25T11:24:19.170Z,9.92
2023-02-25T11:25:19.009Z,9.92
2023-02-25T11:26:19.028Z,9.99
2023-02-25T11:27:19.002Z,9.97
2023-02-25T11:28:19.000Z,10.04
2023-02-25T11:29:18.992Z,10.09
2023-02-25T11:30:18.991Z,10.09
2023-02-25T11:31:19.168Z,10.12
2023-02-25T11:32:19.114Z,10.15
2023-02-25T11:33:18.921Z,10.20
2023-02-25T11:34:18.905Z,10.16
2023-02-25T11:35:18.897Z,10.23
2023-02-25T11:36:18.941Z,10.33
2023-02-25T11:37:18.877Z,10.33
2023-02-25T11:38:18.868Z,10.41
2023-02-25T11:39:18.900Z,10.42
2023-02-25T11:40:18.845Z,10.48
2023-02-25T11:41:18.828Z,10.44
2023-02-25T11:42:18.978Z,10.44
2023-02-25T11:43:18.830Z,10.48
2023-02-25T11:44:18.794Z,10.48
2023-02-25T11:45:18.795Z,10.53
2023-02-25T11:46:18.791Z,10.68
2023-02-25T11:47:18.850Z,10.72
2023-02-25T11:48:18.788Z,10.86
2023-02-25T11:49:18.764Z,11.00
2023-02-25T11:50:18.732Z,10.99
2023-02-25T11:51:18.731Z,11.10
2023-02-25T11:52:18.698Z,11.07
2023-02-25T11:53:18.803Z,11.10
2023-02-25T11:54:18.796Z,11.25
2023-02-25T11:55:18.717Z,11.23
2023-02-25T11:56:18.654Z,11.15
2023-02-25T11:57:18.642Z,11.30
2023-02-25T11:58:18.669Z,11.25
2023-02-25T11:59:18.623Z,11.29
2023-02-25T12:00:18.649Z,11.26
2023-02-25T12:01:18.617Z,11.35
2023-02-25T12:02:18.606Z,11.29
2023-02-25T12:03:18.593Z,11.27
2023-02-25T12:04:18.572Z,11.12
2023-02-25T12:05:18.752Z,11.12
2023-02-25T12:06:18.571Z,11.23
2023-02-25T12:07:18.534Z,11.17
2023-02-25T12:08:18.535Z,11.17
2023-02-25T12:09:18.509Z,11.12
2023-02-25T12:10:18.633Z,11.17
2023-02-25T12:11:18.512Z,11.22
2023-02-25T12:12:18.616Z,11.26
2023-02-25T12:13:18.483Z,11.25
2023-02-25T12:14:18.451Z,11.23
2023-02-25T12:15:18.438Z,11.27
2023-02-25T12:16:18.479Z,11.37
2023-02-25T12:17:18.416Z,11.48
2023-02-25T12:18:19.673Z,11.63
2023-02-25T12:19:18.394Z,11.62
2023-02-25T12:20:18.378Z,11.52
2023-02-25T12:21:18.374Z,11.51
2023-02-25T12:22:18.363Z,11.41
2023-02-25T12:23:18.378Z,11.37
2023-02-25T12:24:18.418Z,11.27
2023-02-25T12:25:18.324Z,11.29
2023-02-25T12:26:18.314Z,11.18
2023-02-25T12:27:18.398Z,11.18
2023-02-25T12:28:18.295Z,11.08
2023-02-25T12:29:18.278Z,10.99
2023-02-25T12:30:18.307Z,11.04
2023-02-25T12:31:18.294Z,11.08
2023-02-25T12:32:18.296Z,10.97
2023-02-25T12:33:18.267Z,11.07
2023-02-25T12:34:18.250Z,11.12
2023-02-25T12:35:18.222Z,10.97
2023-02-25T12:36:18.254Z,10.94
2023-02-25T12:37:18.187Z,11.04
2023-02-25T12:38:18.239Z,11.05
2023-02-25T12:39:18.163Z,10.99
2023-02-25T12:40:18.155Z,10.92
2023-02-25T12:41:18.163Z,10.87
2023-02-25T12:42:18.175Z,10.94
2023-02-25T12:43:18.151Z,10.87
2023-02-25T12:44:18.108Z,10.82
2023-02-25T12:45:18.101Z,10.78
2023-02-25T12:46:18.149Z,10.61
2023-02-25T12:47:18.081Z,10.67
2023-02-25T12:48:18.149Z,10.60
2023-02-25T12:49:18.058Z,10.68
2023-02-25T12:50:18.092Z,10.74
2023-02-25T12:51:18.042Z,10.71
2023-02-25T12:52:18.021Z,10.74
2023-02-25T12:53:18.037Z,10.76
2023-02-25T12:54:18.018Z,10.74
2023-02-25T12:55:18.005Z,10.75
2023-02-25T12:56:17.976Z,10.86
2023-02-25T12:57:17.969Z,10.79
2023-02-25T12:58:17.952Z,10.84
2023-02-25T12:59:17.984Z,10.86
2023-02-25T13:00:18.078Z,10.76
2023-02-25T13:01:17.999Z,10.67